createdAt,value
2022-11-23T00:01:38.538Z,6.47
2022-11-23T00:04:09.185Z,6.45
2022-11-23T00:06:38.259Z,6.43
2022-11-23T00:09:06.973Z,6.40
2022-11-23T00:11:36.685Z,6.37
2022-11-23T00:14:06.480Z,6.34
2022-11-23T00:16:35.046Z,6.32
2022-11-23T00:19:04.115Z,6.30
2022-11-23T00:21:34.094Z,6.28
2022-11-23T00:24:02.670Z,6.28
2022-11-23T00:26:31.190Z,6.30
2022-11-23T00:28:59.945Z,6.30
2022-11-23T00:31:29.946Z,6.31
2022-11-23T00:33:59.253Z,6.31
2022-11-23T00:36:29.096Z,6.33
2022-11-23T00:38:57.959Z,6.36
2022-11-23T00:41:28.242Z,6.39
2022-11-23T00:43:56.809Z,6.42
2022-11-23T00:46:26.826Z,6.46
2022-11-23T00:48:58.440Z,6.49
2022-11-23T00:51:29.836Z,6.51
2022-11-23T00:53:59.567Z,6.53
2022-11-23T00:56:29.439Z,6.55
2022-11-23T00:58:59.951Z,6.56
2022-11-23T01:01:33.756Z,6.58
2022-11-23T01:04:08.917Z,6.56
2022-11-23T01:06:39.999Z,6.56
2022-11-23T01:09:13.694Z,6.55
2022-11-23T01:11:42.754Z,6.54
2022-11-23T01:14:11.053Z,6.55
2022-11-23T01:16:42.958Z,6.59
2022-11-23T01:19:16.179Z,6.60
2022-11-23T01:21:45.495Z,6.62
2022-11-23T01:24:18.157Z,6.66
2022-11-23T01:26:47.469Z,6.67
2022-11-23T01:29:16.200Z,6.71
2022-11-23T01:31:46.768Z,6.71
2022-11-23T01:34:19.901Z,6.72
2022-11-23T01:36:49.302Z,6.75
2022-11-23T01:39:17.524Z,6.76
2022-11-23T01:41:46.852Z,6.78
2022-11-23T01:44:28.274Z,6.80
2022-11-23T01:46:59.546Z,6.82
2022-11-23T01:49:32.615Z,6.82
2022-11-23T01:52:07.726Z,6.83
2022-11-23T01:54:40.830Z,6.84
2022-11-23T01:57:14.739Z,6.84
2022-11-23T01:59:43.017Z,6.85
2022-11-23T02:02:11.700Z,6.86
2022-11-23T02:04:46.008Z,6.86
2022-11-23T02:07:18.132Z,6.86
2022-11-23T02:09:47.967Z,6.85
2022-11-23T02:12:16.586Z,6.87
2022-11-23T02:14:45.972Z,6.85
2022-11-23T02:17:14.771Z,6.86
2022-11-23T02:19:58.126Z,6.85
2022-11-23T02:22:36.235Z,6.88
2022-11-23T02:25:10.460Z,6.86
2022-11-23T02:27:46.640Z,6.85
2022-11-23T02:30:15.612Z,6.88
2022-11-23T02:32:44.990Z,6.88
2022-11-23T02:35:13.814Z,6.89
2022-11-23T02:37:44.979Z,6.88
2022-11-23T02:40:24.343Z,6.88
2022-11-23T02:42:54.269Z,6.89
2022-11-23T02:45:34.755Z,6.88
2022-11-23T02:48:03.575Z,6.88
2022-11-23T02:50:32.925Z,6.88
2022-11-23T02:53:02.244Z,6.88
2022-11-23T02:55:33.097Z,6.89
2022-11-23T02:58:04.423Z,6.89
2022-11-23T03:00:33.912Z,6.90
2022-11-23T03:03:03.218Z,6.89
2022-11-23T03:05:31.961Z,6.90
2022-11-23T03:08:06.252Z,6.90
2022-11-23T03:10:35.089Z,6.89
2022-11-23T03:13:04.821Z,6.89
2022-11-23T03:15:37.323Z,6.86
2022-11-23T03:18:06.859Z,6.86
2022-11-23T03:20:35.884Z,6.86
2022-11-23T03:23:04.753Z,6.86
2022-11-23T03:25:33.328Z,6.88
2022-11-23T03:28:01.979Z,6.88
2022-11-23T03:30:31.964Z,6.89
2022-11-23T03:33:00.660Z,6.88
2022-11-23T03:35:29.987Z,6.89
2022-11-23T03:38:17.378Z,6.88
2022-11-23T03:40:46.663Z,6.88
2022-11-23T03:43:24.152Z,6.89
2022-11-23T03:45:54.399Z,6.88
2022-11-23T03:48:24.273Z,6.88
2022-11-23T03:50:52.743Z,6.85
2022-11-23T03:53:20.939Z,6.84
2022-11-23T03:55:49.204Z,6.84
2022-11-23T03:58:17.579Z,6.84
2022-11-23T04:00:45.959Z,6.81
2022-11-23T04:03:17.995Z,6.82
2022-11-23T04:06:04.691Z,6.80
2022-11-23T04:08:51.875Z,6.79
2022-11-23T04:11:31.655Z,6.79
2022-11-23T04:14:00.296Z,6.78
2022-11-23T04:16:29.148Z,6.77
2022-11-23T04:18:59.032Z,6.76
2022-11-23T04:21:28.911Z,6.76
2022-11-23T04:23:57.243Z,6.77
2022-11-23T04:26:26.934Z,6.78
2022-11-23T04:28:56.049Z,6.79
2022-11-23T04:31:24.567Z,6.78
2022-11-23T04:34:03.563Z,6.77
2022-11-23T04:36:32.199Z,6.77
2022-11-23T04:39:01.217Z,6.79
2022-11-23T04:41:38.002Z,6.80
2022-11-23T04:44:07.098Z,6.81
2022-11-23T04:46:36.514Z,6.82
2022-11-23T04:49:11.887Z,6.84
2022-11-23T04:51:40.521Z,6.85
2022-11-23T04:54:10.240Z,6.85
2022-11-23T04:56:47.163Z,6.84
2022-11-23T04:59:15.623Z,6.84
2022-11-23T05:01:44.471Z,6.85
2022-11-23T05:04:34.572Z,6.84
2022-11-23T05:07:04.484Z,6.85
2022-11-23T05:09:35.733Z,6.88
2022-11-23T05:12:23.301Z,6.88
2022-11-23T05:14:52.485Z,6.90
2022-11-23T05:17:26.054Z,6.91
2022-11-23T05:19:57.236Z,6.94
2022-11-23T05:22:26.502Z,6.96
2022-11-23T05:24:55.649Z,6.97
2022-11-23T05:27:26.365Z,6.99
2022-11-23T05:29:54.639Z,6.98
2022-11-23T05:32:22.860Z,6.99
2022-11-23T05:34:52.160Z,7.00
2022-11-23T05:37:22.830Z,7.01
2022-11-23T05:40:00.312Z,7.02
2022-11-23T05:42:29.077Z,7.04
2022-11-23T05:45:04.529Z,7.04
2022-11-23T05:47:41.971Z,7.04
2022-11-23T05:50:19.988Z,7.03
2022-11-23T05:52:49.797Z,7.05
2022-11-23T05:55:18.642Z,7.05
2022-11-23T05:57:47.288Z,7.07
2022-11-23T06:00:16.885Z,7.08
2022-11-23T06:03:01.554Z,7.08
2022-11-23T06:05:32.924Z,7.09
2022-11-23T06:08:02.560Z,7.10
2022-11-23T06:10:31.069Z,7.11
2022-11-23T06:13:04.756Z,7.12
2022-11-23T06:15:34.335Z,7.12
2022-11-23T06:18:05.098Z,7.13
2022-11-23T06:20:45.535Z,7.13
2022-11-23T06:23:15.460Z,7.13
2022-11-23T06:25:44.057Z,7.14
2022-11-23T06:28:17.723Z,7.14
2022-11-23T06:30:49.147Z,7.14
2022-11-23T06:33:18.239Z,7.14
2022-11-23T06:35:54.855Z,7.15
2022-11-23T06:38:26.589Z,7.15
2022-11-23T06:41:05.265Z,7.14
2022-11-23T06:43:34.070Z,7.16
2022-11-23T06:46:06.790Z,7.16
2022-11-23T06:48:39.176Z,7.19
2022-11-23T06:51:08.906Z,7.21
2022-11-23T06:53:40.193Z,7.23
2022-11-23T06:56:10.358Z,7.25
2022-11-23T06:58:38.878Z,7.27
2022-11-23T07:01:13.528Z,7.29
2022-11-23T07:03:51.279Z,7.29
2022-11-23T07:06:33.632Z,7.30
2022-11-23T07:09:09.669Z,7.32
2022-11-23T07:11:58.391Z,7.34
2022-11-23T07:14:27.444Z,7.34
2022-11-23T07:16:57.403Z,7.35
2022-11-23T07:19:25.978Z,7.38
2022-11-23T07:21:57.383Z,7.39
2022-11-23T07:24:27.063Z,7.41
2022-11-23T07:26:55.650Z,7.42
2022-11-23T07:29:24.235Z,7.46
2022-11-23T07:31:53.607Z,7.49
2022-11-23T07:34:25.518Z,7.51
2022-11-23T07:36:57.916Z,7.53
2022-11-23T07:39:55.023Z,7.57
2022-11-23T07:42:39.884Z,7.61
2022-11-23T07:45:09.256Z,7.62
2022-11-23T07:47:40.093Z,7.61
2022-11-23T07:50:11.103Z,7.58
2022-11-23T07:52:40.422Z,7.57
2022-11-23T07:55:11.218Z,7.55
2022-11-23T07:57:40.045Z,7.55
2022-11-23T08:00:10.849Z,7.56
2022-11-23T08:03:04.136Z,7.53
2022-11-23T08:05:34.728Z,7.53
2022-11-23T08:08:04.214Z,7.59
2022-11-23T08:10:36.627Z,7.70
2022-11-23T08:13:08.600Z,7.86
2022-11-23T08:15:37.509Z,8.04
2022-11-23T08:18:06.429Z,8.20
2022-11-23T08:20:35.092Z,8.39
2022-11-23T08:23:03.366Z,8.56
2022-11-23T08:25:33.317Z,8.74
2022-11-23T08:28:04.554Z,8.89
2022-11-23T08:30:34.740Z,9.09
2022-11-23T08:33:05.672Z,9.27
2022-11-23T08:35:35.151Z,9.44
2022-11-23T08:38:03.679Z,9.60
2022-11-23T08:40:33.647Z,9.75
2022-11-23T08:43:02.638Z,9.92
2022-11-23T08:45:31.377Z,10.09
2022-11-23T08:48:01.242Z,10.26
2022-11-23T08:50:30.351Z,10.38
2022-11-23T08:53:00.116Z,10.50
2022-11-23T08:55:29.645Z,10.58
2022-11-23T08:58:00.270Z,10.72
2022-11-23T09:00:29.887Z,10.82
2022-11-23T09:02:59.371Z,10.95
2022-11-23T09:05:28.736Z,11.04
2022-11-23T09:08:00.137Z,11.09
2022-11-23T09:10:28.908Z,11.16
2022-11-23T09:12:59.372Z,11.25
2022-11-23T09:15:28.192Z,11.26
2022-11-23T09:17:57.160Z,11.34
2022-11-23T09:20:26.301Z,11.43
2022-11-23T09:22:55.888Z,11.57
2022-11-23T09:25:24.850Z,11.68
2022-11-23T09:28:00.398Z,11.79
2022-11-23T09:30:29.201Z,11.87
2022-11-23T09:32:57.980Z,11.97
2022-11-23T09:35:26.659Z,12.10
2022-11-23T09:37:58.558Z,12.25
2022-11-23T09:40:32.135Z,12.30
2022-11-23T09:43:30.136Z,12.36
2022-11-23T09:46:04.586Z,12.43
2022-11-23T09:49:02.356Z,12.40
2022-11-23T09:51:31.147Z,12.46
2022-11-23T09:54:05.155Z,12.56
2022-11-23T09:56:37.207Z,12.58
2022-11-23T09:59:16.977Z,12.59
2022-11-23T10:01:45.679Z,12.64
2022-11-23T10:04:20.611Z,12.71
2022-11-23T10:06:58.625Z,12.71
2022-11-23T10:09:40.061Z,12.75
2022-11-23T10:12:31.906Z,12.83
2022-11-23T10:15:15.059Z,12.94
2022-11-23T10:18:15.735Z,12.96
2022-11-23T10:21:15.995Z,12.99
2022-11-23T10:23:55.475Z,13.09
2022-11-23T10:26:31.477Z,13.28
2022-11-23T10:29:12.530Z,13.39
2022-11-23T10:31:46.663Z,13.46
2022-11-23T10:34:18.575Z,13.53
2022-11-23T10:36:47.089Z,13.65
2022-11-23T10:39:22.881Z,13.79
2022-11-23T10:41:52.150Z,13.95
2022-11-23T10:44:33.863Z,14.10
2022-11-23T10:47:03.756Z,14.24
2022-11-23T10:49:34.270Z,14.33
2022-11-23T10:52:05.534Z,14.38
2022-11-23T10:54:37.178Z,14.40
2022-11-23T10:57:24.211Z,14.36
2022-11-23T11:00:00.876Z,14.32
2022-11-23T11:02:38.867Z,14.43
2022-11-23T11:08:20.005Z,14.49
2022-11-23T11:10:50.953Z,14.39
2022-11-23T11:13:29.775Z,14.35
2022-11-23T11:16:01.276Z,14.43
2022-11-23T11:18:34.672Z,14.49
2022-11-23T11:21:07.787Z,14.55
2022-11-23T11:23:41.532Z,14.69
2022-11-23T11:26:23.722Z,14.78
2022-11-23T11:28:54.470Z,14.89
2022-11-23T11:31:46.443Z,14.92
2022-11-23T11:34:30.458Z,14.96
2022-11-23T11:37:10.343Z,14.95
2022-11-23T11:39:46.976Z,14.96
2022-11-23T11:42:23.483Z,14.93
2022-11-23T11:44:57.220Z,14.82
2022-11-23T11:47:32.787Z,14.76
2022-11-23T11:50:15.228Z,14.75
2022-11-23T11:52:47.627Z,14.72
2022-11-23T11:55:22.105Z,14.80
2022-11-23T11:57:56.499Z,14.81
2022-11-23T12:00:25.059Z,14.81
2022-11-23T12:03:05.278Z,14.82
2022-11-23T12:05:44.086Z,14.80
2022-11-23T12:08:17.121Z,14.74
2022-11-23T12:10:51.227Z,14.71
2022-11-23T12:13:22.413Z,14.74
2022-11-23T12:15:57.125Z,14.77
2022-11-23T12:19:05.216Z,14.79
2022-11-23T12:22:08.591Z,14.90
2022-11-23T12:25:05.379Z,14.88
2022-11-23T12:30:41.877Z,14.76
2022-11-23T12:33:45.175Z,14.66
2022-11-23T12:36:49.505Z,14.68
2022-11-23T12:39:39.536Z,14.69
2022-11-23T12:42:14.700Z,14.60
2022-11-23T12:45:18.594Z,14.47
2022-11-23T12:48:00.064Z,14.45
2022-11-23T12:50:36.610Z,14.41
2022-11-23T12:53:24.590Z,14.44
2022-11-23T12:56:04.331Z,14.46
2022-11-23T12:58:35.542Z,14.48
2022-11-23T13:01:11.432Z,14.42
2022-11-23T13:04:31.558Z,14.30
2022-11-23T13:07:34.316Z,14.30
2022-11-23T13:10:54.988Z,14.26
2022-11-23T13:13:37.938Z,14.20
2022-11-23T13:16:41.890Z,14.10
2022-11-23T13:19:27.704Z,14.11
2022-11-23T13:21:56.699Z,14.11
2022-11-23T13:24:31.382Z,14.11
2022-11-23T13:27:56.148Z,14.08
2022-11-23T13:30:51.947Z,14.19
2022-11-23T13:33:37.695Z,14.26
2022-11-23T13:36:15.342Z,14.31
2022-11-23T13:38:48.290Z,14.25
2022-11-23T13:42:00.399Z,14.18
2022-11-23T13:44:33.382Z,14.21
2022-11-23T13:47:21.518Z,14.20
2022-11-23T13:49:52.585Z,14.22
2022-11-23T13:52:32.268Z,14.13
2022-11-23T13:55:22.270Z,14.07
2022-11-23T13:58:40.593Z,14.00
2022-11-23T14:01:11.374Z,14.00
2022-11-23T14:03:56.775Z,13.88
2022-11-23T14:06:40.646Z,13.84
2022-11-23T14:09:19.297Z,13.82
2022-11-23T14:12:03.001Z,13.78
2022-11-23T14:14:47.115Z,13.70
2022-11-23T14:17:55.069Z,13.53
2022-11-23T14:20:58.891Z,13.50
2022-11-23T14:24:18.983Z,13.36
2022-11-23T14:27:24.100Z,13.22
2022-11-23T14:30:15.482Z,13.01
2022-11-23T14:33:04.411Z,12.84
2022-11-23T14:35:41.874Z,12.70
2022-11-23T14:39:05.532Z,12.55
2022-11-23T14:41:36.252Z,12.36
2022-11-23T14:44:06.914Z,12.17
2022-11-23T14:46:35.575Z,11.99
2022-11-23T14:49:14.059Z,11.77
2022-11-23T14:51:45.729Z,11.61
2022-11-23T14:54:20.349Z,11.44
2022-11-23T14:56:51.576Z,11.31
2022-11-23T14:59:25.598Z,11.18
2022-11-23T15:01:57.939Z,11.06
2022-11-23T15:04:34.743Z,10.95
2022-11-23T15:07:06.078Z,10.81
2022-11-23T15:09:50.161Z,10.69
2022-11-23T15:12:25.303Z,10.59
2022-11-23T15:14:57.217Z,10.50
2022-11-23T15:17:27.086Z,10.42
2022-11-23T15:19:58.618Z,10.35
2022-11-23T15:22:31.108Z,10.29
2022-11-23T15:25:07.989Z,10.19
2022-11-23T15:27:40.948Z,10.15
2022-11-23T15:30:18.403Z,10.06
2022-11-23T15:32:58.172Z,10.00
2022-11-23T15:35:33.816Z,9.92
2022-11-23T15:38:04.226Z,9.84
2022-11-23T15:40:36.642Z,9.80
2022-11-23T15:43:05.219Z,9.75
2022-11-23T15:45:39.194Z,9.72
2022-11-23T15:48:14.486Z,9.70
2022-11-23T15:50:52.530Z,9.68
2022-11-23T15:53:23.547Z,9.66
2022-11-23T15:55:52.375Z,9.63
2022-11-23T15:58:22.108Z,9.63
2022-11-23T16:00:54.382Z,9.63
2022-11-23T16:03:35.595Z,9.62
2022-11-23T16:06:18.978Z,9.62
2022-11-23T16:08:47.537Z,9.63
2022-11-23T16:11:34.983Z,9.64
2022-11-23T16:14:20.328Z,9.62
2022-11-23T16:16:59.367Z,9.64
2022-11-23T16:19:31.208Z,9.63
2022-11-23T16:22:04.430Z,9.64
2022-11-23T16:24:35.131Z,9.64
2022-11-23T16:27:14.178Z,9.61
2022-11-23T16:29:43.083Z,9.65
2022-11-23T16:32:25.733Z,9.64
2022-11-23T16:34:55.030Z,9.67
2022-11-23T16:37:26.315Z,9.69
2022-11-23T16:39:54.836Z,9.70
2022-11-23T16:42:23.682Z,9.71
2022-11-23T16:44:52.202Z,9.65
2022-11-23T16:47:24.744Z,9.57
2022-11-23T16:49:54.348Z,9.46
2022-11-23T16:52:24.729Z,9.37
2022-11-23T16:54:53.720Z,9.28
2022-11-23T16:57:30.197Z,9.17
2022-11-23T17:00:00.029Z,9.04
2022-11-23T17:02:28.798Z,8.91
2022-11-23T17:04:57.386Z,8.80
2022-11-23T17:07:27.034Z,8.72
2022-11-23T17:09:56.365Z,8.62
2022-11-23T17:12:24.955Z,8.51
2022-11-23T17:14:53.632Z,8.38
2022-11-23T17:17:23.573Z,8.26
2022-11-23T17:19:52.623Z,8.13
2022-11-23T17:22:21.549Z,8.02
2022-11-23T17:24:52.586Z,7.91
2022-11-23T17:27:24.763Z,7.82
2022-11-23T17:29:58.078Z,7.71
2022-11-23T17:32:26.712Z,7.66
2022-11-23T17:34:55.501Z,7.61
2022-11-23T17:37:25.334Z,7.55
2022-11-23T17:39:54.937Z,7.50
2022-11-23T17:42:23.433Z,7.47
2022-11-23T17:44:52.058Z,7.46
2022-11-23T17:47:26.334Z,7.42
2022-11-23T17:49:54.872Z,7.41
2022-11-23T17:52:24.343Z,7.40
2022-11-23T17:54:54.519Z,7.39
2022-11-23T17:57:25.518Z,7.37
2022-11-23T17:59:55.508Z,7.33
2022-11-23T18:02:26.002Z,7.32
2022-11-23T18:04:54.220Z,7.35
2022-11-23T18:07:22.506Z,7.35
2022-11-23T18:09:51.343Z,7.35
2022-11-23T18:12:21.539Z,7.34
2022-11-23T18:14:50.057Z,7.32
2022-11-23T18:17:18.860Z,7.31
2022-11-23T18:19:47.278Z,7.32
2022-11-23T18:22:15.772Z,7.32
2022-11-23T18:24:44.020Z,7.34
2022-11-23T18:27:13.382Z,7.38
2022-11-23T18:29:42.991Z,7.42
2022-11-23T18:32:11.638Z,7.45
2022-11-23T18:34:40.168Z,7.46
2022-11-23T18:37:08.761Z,7.48
2022-11-23T18:39:37.247Z,7.47
2022-11-23T18:42:06.328Z,7.47
2022-11-23T18:44:35.168Z,7.45
2022-11-23T18:47:04.975Z,7.42
2022-11-23T18:49:34.103Z,7.41
2022-11-23T18:52:02.868Z,7.40
2022-11-23T18:54:31.069Z,7.42
2022-11-23T18:56:59.727Z,7.43
2022-11-23T18:59:57.020Z,7.44
2022-11-23T19:02:18.674Z,7.44
2022-11-23T19:04:47.183Z,7.43
2022-11-23T19:07:15.841Z,7.44
2022-11-23T19:09:44.483Z,7.44
2022-11-23T19:12:14.022Z,7.45
2022-11-23T19:14:42.220Z,7.46
2022-11-23T19:17:10.753Z,7.47
2022-11-23T19:19:40.320Z,7.46
2022-11-23T19:22:08.536Z,7.47
2022-11-23T19:24:37.182Z,7.47
2022-11-23T19:27:05.779Z,7.48
2022-11-23T19:29:34.715Z,7.49
2022-11-23T19:32:03.599Z,7.49
2022-11-23T19:34:31.987Z,7.49
2022-11-23T19:37:02.097Z,7.48
2022-11-23T19:39:30.884Z,7.49
2022-11-23T19:41:59.546Z,7.51
2022-11-23T19:44:28.056Z,7.51
2022-11-23T19:46:56.313Z,7.50
2022-11-23T19:49:24.833Z,7.52
2022-11-23T19:51:54.084Z,7.50
2022-11-23T19:54:23.876Z,7.49
2022-11-23T19:56:52.473Z,7.47
2022-11-23T19:59:20.659Z,7.45
2022-11-23T20:01:48.900Z,7.41
2022-11-23T20:04:17.472Z,7.40
2022-11-23T20:06:45.981Z,7.37
2022-11-23T20:09:19.149Z,7.35
2022-11-23T20:11:51.206Z,7.37
2022-11-23T20:14:20.524Z,7.38
2022-11-23T20:16:49.053Z,7.35
2022-11-23T20:19:17.614Z,7.31
2022-11-23T20:21:45.861Z,7.28
2022-11-23T20:24:15.326Z,7.24
2022-11-23T20:26:44.283Z,7.20
2022-11-23T20:29:14.701Z,7.17
2022-11-23T20:31:43.068Z,7.12
2022-11-23T20:34:16.636Z,7.09
2022-11-23T20:36:48.564Z,7.07
2022-11-23T20:39:16.896Z,7.05
2022-11-23T20:41:45.863Z,7.04
2022-11-23T20:44:16.165Z,7.02
2022-11-23T20:47:01.284Z,7.01
2022-11-23T20:49:30.974Z,6.99
2022-11-23T20:51:59.440Z,6.98
2022-11-23T20:54:28.006Z,6.98
2022-11-23T20:56:59.788Z,6.99
2022-11-23T20:59:29.993Z,7.00
2022-11-23T21:01:58.656Z,7.05
2022-11-23T21:04:27.508Z,7.10
2022-11-23T21:06:56.025Z,7.16
2022-11-23T21:09:24.639Z,7.20
2022-11-23T21:12:11.319Z,7.24
2022-11-23T21:14:40.976Z,7.28
2022-11-23T21:17:09.511Z,7.32
2022-11-23T21:19:39.823Z,7.37
2022-11-23T21:22:10.746Z,7.39
2022-11-23T21:24:39.840Z,7.38
2022-11-23T21:27:11.869Z,7.34
2022-11-23T21:29:44.207Z,7.30
2022-11-23T21:32:14.626Z,7.25
2022-11-23T21:34:43.241Z,7.20
2022-11-23T21:37:12.527Z,7.15
2022-11-23T21:39:41.804Z,7.11
2022-11-23T21:42:10.268Z,7.07
2022-11-23T21:44:38.535Z,7.05
2022-11-23T21:47:08.178Z,7.02
2022-11-23T21:49:36.750Z,7.01
2022-11-23T21:52:05.465Z,7.02
2022-11-23T21:54:34.080Z,7.06
2022-11-23T21:57:02.689Z,7.14
2022-11-23T21:59:31.219Z,7.23
2022-11-23T22:02:00.316Z,7.31
2022-11-23T22:04:29.932Z,7.31
2022-11-23T22:06:58.504Z,7.31
2022-11-23T22:09:27.087Z,7.31
2022-11-23T22:11:55.557Z,7.32
2022-11-23T22:14:24.126Z,7.29
2022-11-23T22:16:53.677Z,7.29
2022-11-23T22:19:22.178Z,7.29
2022-11-23T22:21:51.755Z,7.28
2022-11-23T22:24:21.139Z,7.25
2022-11-23T22:26:49.967Z,7.24
2022-11-23T22:29:18.526Z,7.24
2022-11-23T22:31:46.794Z,7.23
2022-11-23T22:34:15.450Z,7.24
2022-11-23T22:36:43.929Z,7.25
2022-11-23T22:39:13.544Z,7.30
2022-11-23T22:41:42.754Z,7.34
2022-11-23T22:44:11.786Z,7.37
2022-11-23T22:46:40.672Z,7.36
2022-11-23T22:49:09.352Z,7.39
2022-11-23T22:51:37.862Z,7.38
2022-11-23T22:54:06.452Z,7.40
2022-11-23T22:56:36.050Z,7.42
2022-11-23T22:59:04.610Z,7.42
2022-11-23T23:01:33.188Z,7.42
2022-11-23T23:04:02.899Z,7.43
2022-11-23T23:06:34.770Z,7.43
2022-11-23T23:09:05.202Z,7.44
2022-11-23T23:11:36.231Z,7.41
2022-11-23T23:14:05.187Z,7.38
2022-11-23T23:16:33.937Z,7.35
2022-11-23T23:19:03.446Z,7.30
2022-11-23T23:21:32.172Z,7.27
2022-11-23T23:24:02.065Z,7.25
2022-11-23T23:26:30.600Z,7.23
2022-11-23T23:29:01.623Z,7.24
2022-11-23T23:31:30.902Z,7.27
2022-11-23T23:34:00.894Z,7.29
2022-11-23T23:36:29.474Z,7.29
2022-11-23T23:38:58.691Z,7.29
2022-11-23T23:41:27.222Z,7.29
2022-11-23T23:43:55.818Z,7.31
2022-11-23T23:46:25.951Z,7.35
2022-11-23T23:48:54.750Z,7.40
2022-11-23T23:51:24.928Z,7.48
2022-11-23T23:53:53.899Z,7.55
2022-11-23T23:56:24.293Z,7.63
2022-11-23T23:58:52.741Z,7.67
